Time;durP1;ratioP1;P1;durP2;ratioP2;P2;SDS_P1;SDS_P2;PMS_P1;PMS_P2;Temp;Humidity;BMP_temperature;BMP_pressure;BME280_temperature;BME280_humidity;BME280_pressure;Samples;Min_cycle;Max_cycle;Signal;HPM_P1;HPM_P2
2021/10/25 00:00:41;;;;;;;9.63;5.43;;;7.20;99.90;;;;;;5101852;28;20492;-68
2021/10/25 00:03:08;;;;;;;7.17;5.03;;;7.20;99.90;;;;;;5098715;28;20910;-68
2021/10/25 00:05:35;;;;;;;6.27;5.40;;;7.10;99.90;;;;;;5098843;28;20494;-68
2021/10/25 00:08:03;;;;;;;8.37;5.50;;;7.10;99.90;;;;;;5098378;28;20484;-68
2021/10/25 00:10:30;;;;;;;10.57;6.20;;;7.10;99.90;;;;;;5098629;28;20464;-68
2021/10/25 00:12:59;;;;;;;10.67;5.90;;;7.10;99.90;;;;;;5099602;28;20453;-68
2021/10/25 00:15:26;;;;;;;9.10;6.50;;;7.10;99.90;;;;;;5098820;28;20914;-70
2021/10/25 00:17:53;;;;;;;11.53;5.90;;;7.10;99.90;;;;;;5098306;28;20468;-68
2021/10/25 00:20:20;;;;;;;9.60;4.90;;;7.00;99.90;;;;;;5098669;28;20492;-68
2021/10/25 00:22:46;;;;;;;8.80;5.50;;;7.00;99.90;;;;;;5098649;28;20472;-68
2021/10/25 00:25:15;;;;;;;6.63;4.43;;;7.00;99.90;;;;;;5098256;28;20455;-68
2021/10/25 00:27:41;;;;;;;7.50;6.00;;;6.90;99.90;;;;;;5098519;28;20466;-68
2021/10/25 00:30:09;;;;;;;8.57;5.33;;;6.90;99.90;;;;;;5098257;28;20795;-68
2021/10/25 00:32:37;;;;;;;7.23;5.00;;;6.90;99.90;;;;;;5097966;28;20487;-68
2021/10/25 00:35:04;;;;;;;7.97;5.43;;;6.90;99.90;;;;;;5098179;28;20514;-68
2021/10/25 00:37:31;;;;;;;10.10;6.10;;;6.80;99.90;;;;;;5098109;28;20801;-68
2021/10/25 00:39:57;;;;;;;11.57;5.53;;;6.80;99.90;;;;;;5097548;28;20479;-68
2021/10/25 00:42:25;;;;;;;8.70;5.40;;;6.80;99.90;;;;;;5098434;28;20465;-68
2021/10/25 00:44:52;;;;;;;8.43;6.13;;;6.80;99.90;;;;;;5097890;28;20457;-68
2021/10/25 00:47:21;;;;;;;13.10;6.40;;;6.80;99.90;;;;;;5097973;28;20804;-68
2021/10/25 00:49:48;;;;;;;10.27;5.70;;;6.80;99.90;;;;;;5097547;28;20467;-68
2021/10/25 00:52:15;;;;;;;6.87;5.70;;;6.70;99.90;;;;;;5097757;28;20455;-68
2021/10/25 00:54:42;;;;;;;10.70;6.23;;;6.80;99.90;;;;;;5097631;28;20456;-69
2021/10/25 00:57:08;;;;;;;8.10;6.20;;;6.70;99.90;;;;;;5097589;28;20475;-69
2021/10/25 00:59:36;;;;;;;8.37;6.00;;;6.70;99.90;;;;;;5097706;28;20481;-67
2021/10/25 01:02:04;;;;;;;9.30;5.37;;;6.70;99.90;;;;;;5097915;28;20459;-68
2021/10/25 01:04:33;;;;;;;10.10;6.03;;;6.70;99.90;;;;;;5097595;28;20460;-69
2021/10/25 01:07:00;;;;;;;7.17;5.53;;;6.60;99.90;;;;;;5097397;28;20483;-69
2021/10/25 01:09:28;;;;;;;7.23;5.30;;;6.60;99.90;;;;;;5097379;28;20452;-69
2021/10/25 01:11:55;;;;;;;7.57;5.50;;;6.60;99.90;;;;;;5097312;28;20526;-68
2021/10/25 01:14:22;;;;;;;7.63;5.53;;;6.60;99.90;;;;;;5097498;28;20759;-69
2021/10/25 01:16:51;;;;;;;11.67;5.73;;;6.60;99.90;;;;;;5097111;28;20465;-69
2021/10/25 01:19:17;;;;;;;7.30;5.30;;;6.50;99.90;;;;;;5097435;28;20834;-69
2021/10/25 01:21:45;;;;;;;7.50;6.03;;;6.50;99.90;;;;;;5097293;28;20915;-70
2021/10/25 01:24:12;;;;;;;8.83;5.97;;;6.50;99.90;;;;;;5097612;28;20483;-69
2021/10/25 01:26:39;;;;;;;8.60;4.53;;;6.50;99.90;;;;;;5097273;28;20788;-69
2021/10/25 01:29:06;;;;;;;9.90;6.30;;;6.50;99.90;;;;;;5097095;28;20458;-69
2021/10/25 01:31:33;;;;;;;12.93;5.83;;;6.50;99.90;;;;;;5097057;28;20770;-68
2021/10/25 01:34:00;;;;;;;9.60;6.40;;;6.50;99.90;;;;;;5096781;28;20958;-69
2021/10/25 01:36:27;;;;;;;6.93;5.00;;;6.50;99.90;;;;;;5097214;28;20459;-69
2021/10/25 01:38:55;;;;;;;8.60;5.30;;;6.40;99.90;;;;;;5097004;28;20546;-69
2021/10/25 01:41:22;;;;;;;7.53;5.60;;;6.40;99.90;;;;;;5096868;28;20480;-69
2021/10/25 01:43:49;;;;;;;8.70;4.97;;;6.40;99.90;;;;;;5096796;28;20464;-69
2021/10/25 01:46:15;;;;;;;7.53;6.00;;;6.40;99.90;;;;;;5097002;28;20461;-69
2021/10/25 01:48:42;;;;;;;6.13;5.03;;;6.40;99.90;;;;;;5097210;28;20528;-69
2021/10/25 01:51:09;;;;;;;7.23;5.53;;;6.40;99.90;;;;;;5097064;28;20452;-68
2021/10/25 01:53:37;;;;;;;7.47;5.37;;;6.30;99.90;;;;;;5096734;28;20497;-69
2021/10/25 01:56:06;;;;;;;8.30;5.60;;;6.30;99.90;;;;;;5096643;28;20463;-69
2021/10/25 01:58:33;;;;;;;6.70;5.40;;;6.30;99.90;;;;;;5096379;28;20464;-69
2021/10/25 02:01:00;;;;;;;9.63;5.93;;;6.30;99.90;;;;;;5096085;28;20479;-69
2021/10/25 02:03:27;;;;;;;8.07;5.60;;;6.20;99.90;;;;;;5096824;28;20567;-69
2021/10/25 02:05:55;;;;;;;7.07;5.50;;;6.30;99.90;;;;;;5096480;28;20793;-69
2021/10/25 02:08:23;;;;;;;8.83;5.70;;;6.20;99.90;;;;;;5096344;28;20483;-69
2021/10/25 02:10:49;;;;;;;11.33;5.60;;;6.20;99.90;;;;;;5097229;28;20494;-69
2021/10/25 02:13:18;;;;;;;9.53;5.67;;;6.20;99.90;;;;;;5097549;28;20467;-69
2021/10/25 02:15:45;;;;;;;8.90;5.80;;;6.20;99.90;;;;;;5096351;28;20491;-68
2021/10/25 02:18:14;;;;;;;7.30;5.60;;;6.20;99.90;;;;;;5096351;28;20457;-69
2021/10/25 02:20:42;;;;;;;7.00;4.80;;;6.20;99.90;;;;;;5095406;28;20887;-69
2021/10/25 02:23:09;;;;;;;12.27;6.27;;;6.20;99.90;;;;;;5096572;28;20456;-69
2021/10/25 02:25:36;;;;;;;7.90;5.00;;;6.20;99.90;;;;;;5095984;28;20554;-69
2021/10/25 02:28:04;;;;;;;9.27;5.70;;;6.10;99.90;;;;;;5096090;28;20509;-69
2021/10/25 02:30:33;;;;;;;8.20;5.40;;;6.10;99.90;;;;;;5096037;28;20459;-69
2021/10/25 02:33:00;;;;;;;6.03;5.43;;;6.10;99.90;;;;;;5096460;28;20546;-69
2021/10/25 02:35:27;;;;;;;8.00;5.40;;;6.10;99.90;;;;;;5095518;28;20521;-69
2021/10/25 02:37:56;;;;;;;10.53;5.50;;;6.10;99.90;;;;;;5095995;28;20519;-69
2021/10/25 02:40:24;;;;;;;10.50;5.77;;;6.10;99.90;;;;;;5095515;28;20487;-69
2021/10/25 02:42:51;;;;;;;10.07;5.47;;;6.10;99.90;;;;;;5095584;28;20551;-69
2021/10/25 02:45:17;;;;;;;30.43;6.63;;;6.10;99.90;;;;;;5095887;28;20883;-69
2021/10/25 02:47:46;;;;;;;7.03;5.63;;;6.10;99.90;;;;;;5095737;28;20480;-69
2021/10/25 02:50:14;;;;;;;6.20;5.60;;;6.10;99.90;;;;;;5095464;28;20448;-69
2021/10/25 02:52:41;;;;;;;8.07;5.50;;;6.00;99.90;;;;;;5095473;28;20908;-69
2021/10/25 02:55:08;;;;;;;6.70;5.73;;;6.00;99.90;;;;;;5095322;28;20942;-69
2021/10/25 02:57:36;;;;;;;10.30;6.07;;;6.00;99.90;;;;;;5095571;28;20465;-69
2021/10/25 03:00:05;;;;;;;11.17;6.00;;;6.00;99.90;;;;;;5095246;28;20476;-69
2021/10/25 03:02:32;;;;;;;12.40;6.40;;;5.90;99.90;;;;;;5095530;28;20751;-69
2021/10/25 03:05:00;;;;;;;9.93;5.60;;;5.90;99.90;;;;;;5095810;28;20451;-69
2021/10/25 03:07:27;;;;;;;8.07;5.67;;;5.90;99.90;;;;;;5094888;28;20823;-69
2021/10/25 03:09:53;;;;;;;9.50;5.90;;;5.90;99.90;;;;;;5095149;28;20975;-69
2021/10/25 03:12:20;;;;;;;7.87;5.40;;;5.80;99.90;;;;;;5095259;28;20521;-69
2021/10/25 03:14:47;;;;;;;7.70;5.80;;;5.80;99.90;;;;;;5095168;28;20472;-68
2021/10/25 03:17:14;;;;;;;7.63;5.63;;;5.80;99.90;;;;;;5094775;28;20926;-69
2021/10/25 03:19:41;;;;;;;13.53;6.37;;;5.70;99.90;;;;;;5095137;28;20463;-69
2021/10/25 03:22:12;;;;;;;7.40;5.13;;;5.70;99.90;;;;;;5094988;28;20460;-69
2021/10/25 03:24:39;;;;;;;7.63;5.43;;;5.70;99.90;;;;;;5094622;28;20802;-69
2021/10/25 03:27:06;;;;;;;13.87;5.70;;;5.70;99.90;;;;;;5095134;28;20834;-69
2021/10/25 03:29:33;;;;;;;8.57;6.60;;;5.60;99.90;;;;;;5094880;28;20461;-69
2021/10/25 03:32:01;;;;;;;8.43;6.30;;;5.60;99.90;;;;;;5095106;28;20456;-69
2021/10/25 03:34:28;;;;;;;10.33;5.97;;;5.60;99.90;;;;;;5095134;28;20548;-68
2021/10/25 03:36:55;;;;;;;11.83;6.73;;;5.60;99.90;;;;;;5094400;28;20949;-68
2021/10/25 03:39:25;;;;;;;10.63;6.47;;;5.60;99.90;;;;;;5095041;28;20455;-69
2021/10/25 03:41:54;;;;;;;8.20;5.90;;;5.60;99.90;;;;;;5094882;28;20488;-68
2021/10/25 03:44:25;;;;;;;7.43;5.70;;;5.50;99.90;;;;;;5094705;28;20459;-69
2021/10/25 03:46:55;;;;;;;6.40;5.00;;;5.60;99.90;;;;;;5094915;28;20450;-69
2021/10/25 03:49:30;;;;;;;9.20;6.37;;;5.60;99.90;;;;;;5095894;28;20507;-69
2021/10/25 03:51:59;;;;;;;8.00;5.90;;;5.60;99.90;;;;;;5094528;28;20434;-69
2021/10/25 03:54:34;;;;;;;9.40;7.00;;;5.60;99.90;;;;;;5094447;28;20459;-69
2021/10/25 03:57:37;;;;;;;10.30;6.20;;;5.60;99.90;;;;;;5094785;28;20773;-69
2021/10/25 04:00:24;;;;;;;10.83;6.80;;;5.50;99.90;;;;;;5094737;28;20850;-68
2021/10/25 04:03:16;;;;;;;8.47;6.30;;;5.50;99.90;;;;;;5094893;28;20453;-69
2021/10/25 04:27:47;;;;;;;11.27;6.40;;;5.50;99.90;;;;;;5083598;28;20500;-69
2021/10/25 04:30:15;;;;;;;7.97;5.13;;;5.40;99.90;;;;;;5093977;28;20904;-69
2021/10/25 04:32:42;;;;;;;7.17;5.33;;;5.40;99.90;;;;;;5094393;28;20451;-69
2021/10/25 04:35:09;;;;;;;8.17;5.80;;;5.40;99.90;;;;;;5095152;28;20472;-69
2021/10/25 04:37:36;;;;;;;6.73;4.90;;;5.50;99.90;;;;;;5093931;28;20553;-68
2021/10/25 04:40:04;;;;;;;9.93;6.87;;;5.40;99.90;;;;;;5094198;28;20457;-69
2021/10/25 04:42:33;;;;;;;6.37;5.17;;;5.40;99.90;;;;;;5094974;28;20489;-69
2021/10/25 04:45:01;;;;;;;9.17;5.97;;;5.40;99.90;;;;;;5097865;28;20461;-69
2021/10/25 04:47:28;;;;;;;9.93;6.03;;;5.40;99.90;;;;;;5098035;28;20462;-69
2021/10/25 04:49:55;;;;;;;9.17;5.73;;;5.50;99.90;;;;;;5097938;28;20469;-69
2021/10/25 04:52:22;;;;;;;10.07;5.80;;;5.40;99.90;;;;;;5097793;28;20475;-68
2021/10/25 04:54:49;;;;;;;8.50;6.43;;;5.40;99.90;;;;;;5097781;28;20522;-69
2021/10/25 04:57:16;;;;;;;11.73;6.70;;;5.40;99.90;;;;;;5097725;28;20457;-69
2021/10/25 04:59:42;;;;;;;12.93;6.37;;;5.30;99.90;;;;;;5097688;28;20454;-69
2021/10/25 05:02:10;;;;;;;11.93;7.20;;;5.30;99.90;;;;;;5097656;28;20810;-69
2021/10/25 05:04:37;;;;;;;11.43;6.53;;;5.30;99.90;;;;;;5097617;28;20794;-69
2021/10/25 05:07:04;;;;;;;12.87;6.67;;;5.40;99.90;;;;;;5097923;28;20477;-69
2021/10/25 05:09:31;;;;;;;9.27;5.63;;;5.30;99.90;;;;;;5097709;28;20540;-69
2021/10/25 05:11:58;;;;;;;6.60;5.50;;;5.30;99.90;;;;;;5097588;28;20454;-69
2021/10/25 05:14:25;;;;;;;8.40;6.17;;;5.30;99.90;;;;;;5097746;28;20462;-69
2021/10/25 05:16:51;;;;;;;7.03;6.33;;;5.30;99.90;;;;;;5097774;28;20461;-68
2021/10/25 05:19:19;;;;;;;13.00;6.87;;;5.30;99.90;;;;;;5097799;28;20450;-67
2021/10/25 05:21:46;;;;;;;10.83;6.27;;;5.20;99.90;;;;;;5097439;28;20505;-68
2021/10/25 05:24:13;;;;;;;8.40;6.10;;;5.20;99.90;;;;;;5097397;28;20456;-67
2021/10/25 05:26:39;;;;;;;7.20;5.73;;;5.30;99.90;;;;;;5097048;28;20454;-68
2021/10/25 05:29:08;;;;;;;12.03;6.03;;;5.20;99.90;;;;;;5097624;28;20465;-68
2021/10/25 05:31:35;;;;;;;8.10;6.30;;;5.20;99.90;;;;;;5096853;28;20913;-68
2021/10/25 05:34:01;;;;;;;11.10;7.07;;;5.20;99.90;;;;;;5096865;28;20927;-68
2021/10/25 05:36:29;;;;;;;8.47;6.30;;;5.20;99.90;;;;;;5097427;28;20830;-68
2021/10/25 05:38:56;;;;;;;8.40;6.10;;;5.30;99.90;;;;;;5098241;28;20458;-68
2021/10/25 05:41:24;;;;;;;6.27;5.47;;;5.30;99.90;;;;;;5097396;28;20486;-70
2021/10/25 05:43:51;;;;;;;8.50;6.73;;;5.30;99.90;;;;;;5096672;28;20456;-68
2021/10/25 05:46:18;;;;;;;11.63;6.17;;;5.30;99.90;;;;;;5096659;28;20471;-68
2021/10/25 05:48:44;;;;;;;9.70;6.67;;;5.30;99.90;;;;;;5096501;28;20461;-68
2021/10/25 05:51:12;;;;;;;8.13;6.43;;;5.30;99.90;;;;;;5096666;28;20475;-68
2021/10/25 05:53:40;;;;;;;11.00;6.10;;;5.30;99.90;;;;;;5096320;28;20565;-68
2021/10/25 05:56:06;;;;;;;13.50;6.20;;;5.30;99.90;;;;;;5095812;28;20477;-68
2021/10/25 05:58:33;;;;;;;9.60;6.17;;;5.30;99.90;;;;;;5096067;28;20473;-68
2021/10/25 06:01:02;;;;;;;6.47;5.70;;;5.30;99.90;;;;;;5096783;28;20489;-68
2021/10/25 06:03:32;;;;;;;8.60;6.47;;;5.30;99.90;;;;;;5096587;28;20501;-68
2021/10/25 06:05:59;;;;;;;8.90;6.03;;;5.30;99.90;;;;;;5096127;28;20778;-68
2021/10/25 06:08:27;;;;;;;11.13;6.90;;;5.30;99.90;;;;;;5095955;28;20489;-69
2021/10/25 06:10:55;;;;;;;17.30;6.60;;;5.40;99.90;;;;;;5096813;28;20482;-69
2021/10/25 06:13:26;;;;;;;8.90;6.07;;;5.40;99.90;;;;;;5096071;28;20457;-69
2021/10/25 06:16:04;;;;;;;8.90;6.83;;;5.40;99.90;;;;;;5095670;28;20438;-69
2021/10/25 06:18:31;;;;;;;9.57;6.20;;;5.40;99.90;;;;;;5096000;28;20454;-69
2021/10/25 06:20:58;;;;;;;8.80;6.73;;;5.40;99.90;;;;;;5095517;28;20472;-69
2021/10/25 06:23:25;;;;;;;11.53;6.40;;;5.40;99.90;;;;;;5096019;28;20768;-69
2021/10/25 06:25:52;;;;;;;11.27;6.47;;;5.50;99.90;;;;;;5095769;28;20470;-69
2021/10/25 06:28:23;;;;;;;11.90;6.10;;;5.50;99.90;;;;;;5096582;28;20866;-69
2021/10/25 06:30:55;;;;;;;11.60;6.90;;;5.60;99.90;;;;;;5096097;28;20554;-69
2021/10/25 06:33:23;;;;;;;18.77;7.50;;;5.60;99.90;;;;;;5095687;28;20905;-69
2021/10/25 06:36:00;;;;;;;14.00;6.83;;;5.60;99.90;;;;;;5095668;28;20527;-69
2021/10/25 06:38:31;;;;;;;11.60;6.80;;;5.60;99.90;;;;;;5095650;28;20896;-68
2021/10/25 06:40:58;;;;;;;11.40;6.73;;;5.70;99.90;;;;;;5095527;28;20571;-69
2021/10/25 06:43:26;;;;;;;10.17;6.30;;;5.70;99.90;;;;;;5096691;28;20455;-69
2021/10/25 06:45:54;;;;;;;12.63;6.40;;;5.70;99.90;;;;;;5095858;28;20474;-69
2021/10/25 06:48:21;;;;;;;7.07;5.80;;;5.70;99.90;;;;;;5095068;28;20477;-70
2021/10/25 06:50:48;;;;;;;9.37;6.40;;;5.70;99.90;;;;;;5095492;28;20466;-68
2021/10/25 06:53:16;;;;;;;7.17;5.80;;;5.70;99.90;;;;;;5096262;28;20952;-69
2021/10/25 06:55:44;;;;;;;11.17;6.97;;;5.70;99.90;;;;;;5095386;28;20963;-69
2021/10/25 06:58:11;;;;;;;10.93;6.40;;;5.70;99.90;;;;;;5095442;28;20468;-69
2021/10/25 07:00:39;;;;;;;8.50;6.10;;;5.70;99.90;;;;;;5095383;28;20464;-69
2021/10/25 07:03:07;;;;;;;7.97;6.23;;;5.80;99.90;;;;;;5095047;28;20484;-70
2021/10/25 07:05:35;;;;;;;10.80;6.27;;;5.80;99.90;;;;;;5095173;28;20541;-70
2021/10/25 07:08:03;;;;;;;7.70;5.73;;;5.80;99.90;;;;;;5094657;28;20498;-69
2021/10/25 07:10:30;;;;;;;10.20;6.37;;;5.80;99.90;;;;;;5095560;28;20554;-69
2021/10/25 07:12:58;;;;;;;10.10;6.50;;;5.90;99.90;;;;;;5095391;28;20486;-69
2021/10/25 07:15:25;;;;;;;14.20;6.73;;;5.90;99.90;;;;;;5095786;28;20467;-69
2021/10/25 07:17:58;;;;;;;8.40;5.80;;;5.90;99.90;;;;;;5095260;28;20459;-69
2021/10/25 07:20:35;;;;;;;8.97;6.80;;;5.90;99.90;;;;;;5095563;28;20458;-69
2021/10/25 08:07:57;;;;;;;8.40;6.07;;;6.70;99.90;;;;;;5094339;28;20620;-70
2021/10/25 08:10:25;;;;;;;8.87;5.93;;;6.90;99.90;;;;;;5094137;28;20443;-69
2021/10/25 08:12:55;;;;;;;9.87;6.60;;;7.00;99.90;;;;;;5094028;28;20905;-69
2021/10/25 08:15:25;;;;;;;8.97;5.30;;;7.10;99.90;;;;;;5094289;28;20564;-69
2021/10/25 08:17:55;;;;;;;7.70;5.70;;;7.20;99.90;;;;;;5095735;28;20508;-70
2021/10/25 08:20:22;;;;;;;8.37;5.70;;;7.30;99.90;;;;;;5098102;28;20476;-70
2021/10/25 08:22:50;;;;;;;8.57;5.10;;;7.40;99.90;;;;;;5098457;28;20477;-70
2021/10/25 08:25:17;;;;;;;15.33;5.57;;;7.50;99.90;;;;;;5098240;28;20461;-70
2021/10/25 08:27:44;;;;;;;9.73;7.00;;;7.50;99.90;;;;;;5098296;28;20795;-70
2021/10/25 08:30:13;;;;;;;7.77;5.63;;;7.60;99.90;;;;;;5097850;28;20790;-70
2021/10/25 08:32:48;;;;;;;9.13;5.70;;;7.60;99.90;;;;;;5097872;28;20923;-70
2021/10/25 08:35:32;;;;;;;12.10;5.40;;;7.70;99.90;;;;;;5097739;28;20905;-70
2021/10/25 08:40:44;;;;;;;9.17;7.10;;;7.80;99.90;;;;;;5098212;28;20554;-70
2021/10/25 08:43:12;;;;;;;11.63;5.43;;;7.90;99.90;;;;;;5097872;28;20546;-71
2021/10/25 08:45:39;;;;;;;9.67;5.93;;;7.90;99.90;;;;;;5097303;28;20526;-71
2021/10/25 08:48:08;;;;;;;13.20;5.67;;;8.00;99.90;;;;;;5097786;28;20464;-69
2021/10/25 08:50:35;;;;;;;8.37;5.90;;;8.10;99.90;;;;;;5098133;28;20465;-69
2021/10/25 08:53:07;;;;;;;8.00;5.87;;;8.00;99.90;;;;;;5097873;28;20457;-69
2021/10/25 08:55:34;;;;;;;9.20;5.53;;;8.10;99.90;;;;;;5097940;28;20444;-69
2021/10/25 08:58:02;;;;;;;7.13;4.90;;;8.10;99.90;;;;;;5098108;28;20467;-69
2021/10/25 09:00:38;;;;;;;8.30;5.20;;;8.10;99.90;;;;;;5097684;28;20467;-71
2021/10/25 09:03:06;;;;;;;6.40;5.10;;;8.20;99.90;;;;;;5098402;28;20468;-70
2021/10/25 09:05:33;;;;;;;9.37;5.47;;;8.30;99.90;;;;;;5099146;28;20465;-70
2021/10/25 09:08:03;;;;;;;8.50;5.50;;;8.40;99.90;;;;;;5098013;28;20497;-69
2021/10/25 09:10:33;;;;;;;6.93;5.30;;;8.50;99.90;;;;;;5097288;28;20460;-69
2021/10/25 09:13:02;;;;;;;8.77;6.10;;;8.60;99.90;;;;;;5097599;28;20739;-69
2021/10/25 09:15:31;;;;;;;8.80;5.23;;;8.70;99.90;;;;;;5097359;28;20456;-69
2021/10/25 09:17:59;;;;;;;7.73;5.10;;;8.70;99.90;;;;;;5097193;28;20548;-70
2021/10/25 09:20:26;;;;;;;7.50;5.37;;;8.80;99.90;;;;;;5097136;28;20937;-70
2021/10/25 09:23:12;;;;;;;6.77;5.33;;;8.90;99.90;;;;;;5097145;28;20481;-70
2021/10/25 09:25:40;;;;;;;8.57;5.47;;;9.00;99.90;;;;;;5097115;28;20443;-70
2021/10/25 09:28:16;;;;;;;5.80;5.10;;;9.10;99.90;;;;;;5097369;28;20788;-69
2021/10/25 09:30:51;;;;;;;13.20;6.30;;;9.10;99.90;;;;;;5096993;28;20433;-70
2021/10/25 09:33:21;;;;;;;15.00;5.17;;;9.30;99.90;;;;;;5097378;28;20444;-70
2021/10/25 09:35:55;;;;;;;10.00;5.73;;;9.40;99.90;;;;;;5097318;28;20451;-70
2021/10/25 09:38:29;;;;;;;5.17;4.50;;;9.40;99.90;;;;;;5097520;28;20938;-70
2021/10/25 09:49:29;;;;;;;8.40;5.27;;;9.60;99.90;;;;;;5097103;28;20478;-69
2021/10/25 09:51:58;;;;;;;9.20;5.50;;;9.60;99.90;;;;;;5096655;28;20471;-70
2021/10/25 09:54:27;;;;;;;11.17;5.47;;;9.70;99.90;;;;;;5096404;28;20454;-70
2021/10/25 09:57:04;;;;;;;8.40;5.00;;;9.70;99.90;;;;;;5096686;28;20558;-69
2021/10/25 09:59:36;;;;;;;6.77;5.00;;;9.80;99.90;;;;;;5096181;28;20507;-69
2021/10/25 10:02:04;;;;;;;5.17;4.37;;;9.80;99.90;;;;;;5096797;28;20468;-70
2021/10/25 10:04:31;;;;;;;8.77;5.00;;;9.90;99.90;;;;;;5096371;28;20510;-70
2021/10/25 10:06:59;;;;;;;9.17;5.40;;;10.00;99.90;;;;;;5096339;28;20820;-70
2021/10/25 10:09:26;;;;;;;6.90;5.07;;;10.10;99.90;;;;;;5096452;28;20549;-68
2021/10/25 10:11:56;;;;;;;9.27;6.57;;;10.20;99.90;;;;;;5097196;28;20454;-68
2021/10/25 10:14:24;;;;;;;9.77;5.87;;;10.20;99.90;;;;;;5098233;28;20937;-69
2021/10/25 10:16:52;;;;;;;9.27;4.67;;;10.30;99.90;;;;;;5098715;28;20568;-69
2021/10/25 10:19:24;;;;;;;7.33;5.63;;;10.40;99.90;;;;;;5097952;28;21179;-69
2021/10/25 10:21:57;;;;;;;10.10;6.50;;;10.50;99.90;;;;;;5098075;28;20448;-69
2021/10/25 10:24:30;;;;;;;8.10;5.30;;;10.60;99.90;;;;;;5096738;28;20459;-69
2021/10/25 10:27:01;;;;;;;8.43;5.63;;;10.60;99.90;;;;;;5096730;28;20470;-70
2021/10/25 10:29:36;;;;;;;7.60;4.70;;;10.70;99.90;;;;;;5097571;28;20466;-69
2021/10/25 10:32:06;;;;;;;10.60;5.83;;;10.80;99.90;;;;;;5096630;28;20470;-69
2021/10/25 10:34:39;;;;;;;5.90;4.77;;;10.90;99.90;;;;;;5095987;28;20458;-69
2021/10/25 10:37:16;;;;;;;8.40;5.03;;;11.00;99.90;;;;;;5095676;28;20449;-68
2021/10/25 10:39:43;;;;;;;10.60;6.67;;;11.00;99.90;;;;;;5096218;28;20464;-70
2021/10/25 10:42:12;;;;;;;10.60;5.80;;;11.00;99.90;;;;;;5096680;28;20477;-70
2021/10/25 10:44:52;;;;;;;7.67;4.80;;;11.10;99.90;;;;;;5095869;28;20465;-68
2021/10/25 10:47:20;;;;;;;8.60;4.40;;;11.10;99.90;;;;;;5095452;28;20973;-69
2021/10/25 10:49:51;;;;;;;11.87;6.00;;;11.10;99.90;;;;;;5095419;28;20623;-70
2021/10/25 10:52:24;;;;;;;10.63;4.97;;;11.10;99.90;;;;;;5095050;28;20496;-69
2021/10/25 10:55:00;;;;;;;7.87;4.67;;;11.20;99.90;;;;;;5095470;28;20445;-70
2021/10/25 11:00:29;;;;;;;7.23;4.93;;;11.40;99.90;;;;;;5092968;28;20459;-70
2021/10/25 11:02:57;;;;;;;6.10;5.00;;;11.50;99.90;;;;;;5094973;28;20531;-70
2021/10/25 11:05:32;;;;;;;9.97;6.03;;;11.60;99.90;;;;;;5095449;28;20812;-70
2021/10/25 11:08:04;;;;;;;7.43;5.57;;;11.80;99.90;;;;;;5094837;28;20524;-69
2021/10/25 11:10:32;;;;;;;8.07;5.50;;;11.90;99.90;;;;;;5095270;28;20475;-69
2021/10/25 11:13:05;;;;;;;6.30;5.33;;;12.00;99.90;;;;;;5095536;28;20456;-70
2021/10/25 11:15:37;;;;;;;8.07;5.13;;;12.00;99.90;;;;;;5094693;28;20880;-70
2021/10/25 11:18:05;;;;;;;8.50;6.20;;;12.00;99.90;;;;;;5096047;28;20570;-70
2021/10/25 11:20:33;;;;;;;6.53;5.47;;;12.00;99.90;;;;;;5094905;28;20484;-70
2021/10/25 11:23:04;;;;;;;7.20;5.37;;;12.00;99.90;;;;;;5095059;28;20488;-69
2021/10/25 11:25:41;;;;;;;7.27;5.50;;;12.00;99.90;;;;;;5094751;28;20454;-70
2021/10/25 11:28:17;;;;;;;11.00;5.50;;;12.00;99.90;;;;;;5094960;28;20752;-70
2021/10/25 11:30:45;;;;;;;9.17;5.10;;;12.00;99.90;;;;;;5095008;28;20482;-70
2021/10/25 11:33:12;;;;;;;10.60;6.00;;;11.90;99.90;;;;;;5094782;28;20960;-70
2021/10/25 11:35:46;;;;;;;6.50;5.50;;;12.00;99.90;;;;;;5094968;28;20464;-70
2021/10/25 11:38:14;;;;;;;7.33;5.33;;;12.00;99.90;;;;;;5094787;28;20512;-70
2021/10/25 11:40:44;;;;;;;10.00;6.10;;;12.10;99.90;;;;;;5094811;28;20469;-70
2021/10/25 11:43:11;;;;;;;8.50;5.60;;;12.30;99.90;;;;;;5095938;28;20478;-70
2021/10/25 11:45:39;;;;;;;7.20;4.60;;;12.30;99.90;;;;;;5098502;28;20467;-70
2021/10/25 11:48:06;;;;;;;7.43;5.70;;;12.50;99.90;;;;;;5095123;28;20462;-69
2021/10/25 11:50:34;;;;;;;5.57;5.07;;;12.80;99.90;;;;;;5094971;28;20806;-69
2021/10/25 11:53:04;;;;;;;10.70;6.17;;;12.90;99.90;;;;;;5093980;28;20828;-70
2021/10/25 11:55:33;;;;;;;8.00;5.43;;;13.00;99.90;;;;;;5094687;28;20441;-69
2021/10/25 11:58:03;;;;;;;10.87;5.80;;;13.00;99.90;;;;;;5094554;28;20466;-69
2021/10/25 12:00:31;;;;;;;8.20;6.00;;;13.00;99.90;;;;;;5094616;28;20460;-69
2021/10/25 12:03:07;;;;;;;7.07;5.40;;;12.90;99.90;;;;;;5094678;28;20564;-69
2021/10/25 12:05:34;;;;;;;6.37;5.43;;;13.10;99.90;;;;;;5095142;28;20929;-69
2021/10/25 12:08:02;;;;;;;10.67;6.23;;;13.40;99.90;;;;;;5094069;28;20485;-69
2021/10/25 12:10:30;;;;;;;7.07;4.90;;;13.90;99.90;;;;;;5094381;28;20457;-70
2021/10/25 12:12:59;;;;;;;8.67;5.80;;;14.40;99.90;;;;;;5094351;28;20666;-70
2021/10/25 12:15:26;;;;;;;6.47;4.70;;;14.80;99.90;;;;;;5094559;28;20840;-69
2021/10/25 12:17:57;;;;;;;7.60;4.97;;;15.10;99.90;;;;;;5094158;28;20890;-69
2021/10/25 12:20:27;;;;;;;6.80;5.70;;;15.20;99.90;;;;;;5094085;28;20776;-69
2021/10/25 12:22:58;;;;;;;9.20;5.70;;;15.20;99.90;;;;;;5094211;28;20478;-71
2021/10/25 12:25:25;;;;;;;6.37;5.10;;;15.00;99.90;;;;;;5094289;28;20801;-69
2021/10/25 12:27:58;;;;;;;6.47;5.00;;;14.90;99.90;;;;;;5094561;28;20458;-69
2021/10/25 12:30:25;;;;;;;10.53;6.07;;;14.80;99.90;;;;;;5094074;28;20803;-71
2021/10/25 12:32:53;;;;;;;7.03;6.30;;;14.60;99.90;;;;;;5094271;28;20506;-70
2021/10/25 12:35:32;;;;;;;7.20;4.80;;;14.30;99.90;;;;;;5094067;28;20458;-70
2021/10/25 12:37:59;;;;;;;8.77;6.03;;;14.00;99.90;;;;;;5093886;28;20476;-70
2021/10/25 12:40:26;;;;;;;10.90;6.73;;;13.90;99.90;;;;;;5093657;28;20453;-69
2021/10/25 12:43:00;;;;;;;8.60;6.70;;;13.80;99.90;;;;;;5094703;28;20509;-69
2021/10/25 12:45:31;;;;;;;14.27;5.87;;;13.70;99.90;;;;;;5093490;28;20483;-69
2021/10/25 12:48:00;;;;;;;7.40;5.70;;;13.60;99.90;;;;;;5094064;28;20452;-69
2021/10/25 12:50:33;;;;;;;10.90;5.70;;;13.50;99.90;;;;;;5093873;28;20550;-69
2021/10/25 12:53:05;;;;;;;6.73;5.33;;;13.50;99.90;;;;;;5094698;28;20441;-69
2021/10/25 12:55:32;;;;;;;10.57;5.57;;;13.90;99.90;;;;;;5093381;28;20482;-69
2021/10/25 12:57:59;;;;;;;12.20;5.43;;;14.40;99.90;;;;;;5093946;28;20464;-69
2021/10/25 13:00:26;;;;;;;10.00;5.87;;;14.70;99.90;;;;;;5094151;28;20469;-69
2021/10/25 13:02:53;;;;;;;8.57;5.70;;;14.60;99.90;;;;;;5093451;28;20581;-69
2021/10/25 13:05:22;;;;;;;7.57;6.00;;;14.60;99.90;;;;;;5097542;28;20457;-69
2021/10/25 13:07:52;;;;;;;6.47;5.60;;;14.30;99.90;;;;;;5097445;28;20500;-69
2021/10/25 13:10:22;;;;;;;13.30;5.97;;;14.10;99.90;;;;;;5097575;28;20473;-69
2021/10/25 13:12:49;;;;;;;6.70;6.00;;;13.80;99.90;;;;;;5097156;28;20503;-69
2021/10/25 13:15:16;;;;;;;7.60;6.37;;;13.50;99.90;;;;;;5097462;28;20457;-70
2021/10/25 13:17:43;;;;;;;8.37;6.13;;;13.30;99.90;;;;;;5097550;28;20472;-70
2021/10/25 13:20:13;;;;;;;10.80;6.43;;;13.10;99.90;;;;;;5096695;28;20474;-70
2021/10/25 13:22:39;;;;;;;16.17;6.93;;;13.00;99.90;;;;;;5096942;28;20460;-70
2021/10/25 13:25:08;;;;;;;8.63;6.53;;;12.80;99.90;;;;;;5097177;28;20461;-70
2021/10/25 13:27:36;;;;;;;7.90;6.10;;;12.80;99.90;;;;;;5096844;28;20457;-70
2021/10/25 13:30:03;;;;;;;11.70;6.60;;;12.80;99.90;;;;;;5097405;28;20465;-69
2021/10/25 13:32:30;;;;;;;10.63;7.20;;;12.80;99.90;;;;;;5096923;28;20485;-70
2021/10/25 13:34:57;;;;;;;8.70;6.93;;;12.90;99.90;;;;;;5096708;28;20468;-70
2021/10/25 13:37:24;;;;;;;7.80;6.60;;;12.90;99.90;;;;;;5096743;28;20468;-70
2021/10/25 13:39:51;;;;;;;7.87;6.67;;;13.00;99.90;;;;;;5096569;28;20828;-70
2021/10/25 13:42:19;;;;;;;7.73;5.90;;;13.00;99.90;;;;;;5096880;28;20820;-70
2021/10/25 13:44:46;;;;;;;7.70;6.67;;;13.00;99.90;;;;;;5096456;28;20481;-70
2021/10/25 13:47:18;;;;;;;16.80;8.33;;;13.00;99.90;;;;;;5096483;28;20455;-70
2021/10/25 13:49:45;;;;;;;9.83;6.70;;;13.10;99.90;;;;;;5096727;28;20470;-70
2021/10/25 13:52:12;;;;;;;9.10;7.00;;;13.10;99.90;;;;;;5096200;28;20484;-70
2021/10/25 13:54:39;;;;;;;10.23;7.20;;;13.00;99.90;;;;;;5096340;28;20893;-69
2021/10/25 13:57:10;;;;;;;8.97;6.80;;;12.80;99.90;;;;;;5095820;28;20932;-69
2021/10/25 13:59:38;;;;;;;9.70;7.37;;;12.90;99.90;;;;;;5096048;28;20446;-69
2021/10/25 14:02:10;;;;;;;9.83;7.20;;;12.80;99.90;;;;;;5097087;28;20779;-69
2021/10/25 14:04:40;;;;;;;12.47;7.23;;;12.70;99.90;;;;;;5096568;28;20519;-69
2021/10/25 14:07:12;;;;;;;9.70;8.37;;;12.70;99.90;;;;;;5095881;28;20483;-69
2021/10/25 14:09:42;;;;;;;11.80;7.20;;;12.70;99.90;;;;;;5096811;28;20845;-69
2021/10/25 14:12:09;;;;;;;14.33;7.80;;;12.70;99.90;;;;;;5096702;28;20466;-69
2021/10/25 14:14:37;;;;;;;11.57;6.83;;;12.60;99.90;;;;;;5096080;28;20461;-69
2021/10/25 14:17:04;;;;;;;8.87;7.40;;;12.60;99.90;;;;;;5095786;28;20462;-69
2021/10/25 14:19:31;;;;;;;10.33;6.60;;;12.60;99.90;;;;;;5097667;28;20469;-69